Aérodrome :
LOGIN :

S'inscrire | Disclaimer

   EN    FR    IT 

 










Légende :    VFR   VFR Marginal   IFR   IFR Intensif   IFR Très Intensif
Visi : 
Plafond : 
>= 8 km
>= 3000ft
5 à 8 km
1000 à 3000 ft
1500m à 5 km
500 à 1000 ft
800 à 1500m
200 à 500 ft
< 800m
< 200 ft
Symboles :   Orages  Brouillard  Fortes neiges  Fortes précipitations  Vent > 20 kt
SIGMETs :   Divers  Orages  Givrage  Turbulence  Onde Orograph.  Cendres Volcan.







- Altitude de l'aérodrome : 245 ft
- Code IATA : BIQ
- Voir les cartes d'approche


LFBZ - Biarritz

DERNIER METAR :
  • 172300Z AUTO 12003KT 9999 BKN046/// BKN070/// BKN090/// ///TCU 08/07 Q1028 BECMG SCT020 SCT050

METARs EXPIRÉS :
  • 172230Z AUTO 10002KT 9999 FEW027 BKN044 BKN060 08/06 Q1028 NOSIG
  • 172200Z AUTO 09001KT 9999 SCT030 BKN049 BKN060 09/07 Q1028 NOSIG
  • 172130Z AUTO 02003KT 350V060 9999 FEW024 BKN047 BKN074 09/07 Q1028 NOSIG
  • 172100Z AUTO VRB03KT 9999 BKN045/// BKN056/// BKN072/// ///TCU 10/06 Q1028 BECMG SCT020 SCT050
  • 172030Z AUTO 31004KT 9999 FEW026/// SCT033/// BKN047/// ///TCU 10/07 Q1028 BECMG SCT020 SCT050

TAF TAF LFBZ
Valide du 17 à 18h jusqu'au 18 à 18h UTC


171700Z 1718/1818 30010KT 9999 SCT020 SCT050
PROB30
TEMPO 1718/1720 4000 SHRA BKN020TCU
BECMG 1720/1722 VRB03KT
BECMG 1812/1814 30010KT BKN020
PROB30
TEMPO 1815/1818 -RA BKN014
Pas de NOTAMs connus pour ce terrain.



MET'MAP, la Météo Aéronautique d'un coup d'oeil ! - Copyright ORBIFLY Décembre 2007 - Disclaimer

ORBIFLY MET'MAP TEAM :

Programmation & Développement : Alexandra Zaïnal
Conception & Développement : Baudouin d'Aumeries
Co-Programmation & Développement : Marc-Olivier Méhu
Soutien technique & logistique : Manuel Goepfert

Contact : metmap@orbifly.com




SOURCES & CREDITS :

   NOAA